Decoded Metar for UKOH ( in ) (IATA:) | Meteo·Mobile Aviation Weather
aviador You're here:

UKOH Decoded Metar

in
Report Time2018-08-14 10:30:00
UTC Time2018-08-14 11:00:41
Flight Rules vfr VFR
Wind210° at 6 kt
W.Decomp.*RWY 21: 6.0 kt HW 0 kt LCW
W.Rank210° ranks 8
Current wind is below 210° avg. (9.1)
Visibility9999 m
Phenomena:N/A
Clouds:N/A
Expected CloudBase > 9,200 ft AGL from Temp-Dew spread
CeilingNone
Temp33°C
Dew Point10°C (24% RH)
Heat Index31.3°C
AAT30.8°C
QNH1015 hPa
Raw Report
METAR UKOH 141030Z 21003MPS 150V290 CAVOK 33/10 Q1015
R03/CLRD// NOSIG=

Extra information for UKOH:More info

Social comments